Lynradar: storm image Ingen tordenbyger registrert..



Vårt webkamera mer informasjon My webcam


Kamera på Foreneset mer informasjon webcam on foreneset


Lynradar  blitzortung!


Nedbørsradar  rain snow radar


Besøk vår andre værside:

Alternativ webside

iphone versjon

Mobil versjon

Foreneset
verstasjon



Skogbrann Fra: 20-05-2018 23:00 til: 21-05-2018 22:59 varsel for: Skogbrann Level: Gul info button

Nære METAR rapporter

  
ENHD - Haugesund/Karmoy, Norway
Avstand fra stasjon: V 50km
oppdatert: 20-05-2018 18:50
Klart
Klart  
 Wind from SSV
Vind: SSV 17 km/h
Temperatur:  15°C
Duggpunkt:  7°C
Fuktighet:  59%
Barometer:  1024 hPa
Summering:  Klart
Sikt:  mer enn 10 km
2018/05/20 16:50 ENHD 201650Z 20009KT CAVOK 15/07 Q1024
ENZV - Stavanger/Sola(A, Norway
Avstand fra stasjon: SSV 58km
oppdatert: 20-05-2018 18:50
Få Skyer
Få Skyer  
 Wind from S
Vind: S 24 km/h
Temperatur:  18°C
Duggpunkt:  8°C
Fuktighet:  52%
Barometer:  1025 hPa
Skyer:  Få Skyer
Sikt:  10 km
Skydetaljer:  Få Skyer 1372 m
2018/05/20 16:50 ENZV 201650Z 18013KT 9999 FEW045 18/08 Q1025 NOSIG
ENBR - Bergen/Flesland, Norway
Avstand fra stasjon: NNV 118km
oppdatert: 20-05-2018 18:50
For det meste skyet
For det meste skyet  
 Wind from S
Vind: S 28 km/h
Temperatur:  16°C
Duggpunkt:  6°C
Fuktighet:  52%
Barometer:  1024 hPa
Skyer:  For det meste skyet
Sikt:  10 km
Skydetaljer:  Få Skyer 1067 m
For det meste skyet 6706 m
2018/05/20 16:50 ENBR 201650Z 19015KT 9999 FEW035 BKN220 16/06 Q1024 TEMPO 20020G30KT RMK WIND 1200FT 17022G32KT
ENCN - Kristiansand/Kje, Norway
Avstand fra stasjon: SØ 169km
oppdatert: 20-05-2018 18:50
Få Skyer
Få Skyer  
 Wind from SSV
Vind: SSV 15 km/h
Temperatur:  18°C
Duggpunkt:  11°C
Fuktighet:  64%
Barometer:  1026 hPa
Skyer:  Få Skyer
Sikt:  10 km
Skydetaljer:  Få Skyer 1067 m
2018/05/20 16:50 ENCN 201650Z 20008KT 9999 FEW035 18/11 Q1026
ENQA - Troll-A Heli, Norway
Avstand fra stasjon: NV 198km
oppdatert: 20-05-2018 18:50
For det meste skyet
For det meste skyet  
 Wind from S
Vind: S 69 km/h
Temperatur:  10°C
Wind Chill:  5°C
Duggpunkt:  8°C
Fuktighet:  88%
Barometer:  1020 hPa
Skyer:  For det meste skyet
Sikt:  16 miles
Skydetaljer:  For det meste skyet 3658 m
For det meste skyet 4267 m
2018/05/20 16:50 ENQA 201650Z AUTO 17037KT 9999NDV BKN120/// BKN140/// 10/08 Q1020 W08/S5
ENOA - Oseberg, Norway
Avstand fra stasjon: NV 224km
oppdatert: 20-05-2018 18:50
For det meste skyet
For det meste skyet  
 Wind from S
Vind: S 69 km/h
Temperatur:  10°C
Wind Chill:  5°C
Duggpunkt:  8°C
Fuktighet:  88%
Barometer:  1019 hPa
Skyer:  For det meste skyet
Sikt:  9 km
Skydetaljer:  Delvis Skyet 3962 m
For det meste skyet 4572 m
2018/05/20 16:50 ENOA 201650Z 17037KT 9000 SCT130 BKN150 10/08 Q1019 W///S5
ENFG - Fagernes/Leirin, Norway
Avstand fra stasjon: NØ 257km
oppdatert: 22-04-2018 10:50
Ikke oppdatert
Klart
Klart  
 Wind from S
Vind: S 13 km/h
Temperatur:  6°C
Wind Chill:  3°C
Duggpunkt:  -3°C
Fuktighet:  53%
Barometer:  1014 hPa
Summering:  Klart
Sikt:  mer enn 10 km
2018/04/22 08:50 ENFG 220850Z 19007KT CAVOK 06/M03 Q1014
ENSL - Sleipner A Platf, Norway
Avstand fra stasjon: VSV 264km
oppdatert: 01-01-1970 01:00
Ikke oppdatert
unable to load ENSL data RC=404 Not Found
unable to load ENSL data RC=404 Not Found  
 
ENGC - Gullfax (platfor, Norway
Avstand fra stasjon: NV 294km
oppdatert: 20-05-2018 18:50
Klart
Klart  
 Wind from SSV
Vind: SSV 63 km/h
Temperatur:  10°C
Wind Chill:  5°C
Duggpunkt:  8°C
Fuktighet:  88%
Barometer:  1017 hPa
Summering:  Klart
Sikt:  mer enn 10 km
2018/05/20 16:50 ENGC 201650Z 20034KT CAVOK 10/08 Q1017 W09/S5
ENGM - Oslo/Gardermoen, Norway
Avstand fra stasjon: ØNØ 294km
oppdatert: 20-05-2018 18:50
Klart
Klart  
 Wind from SSV
Vind: SSV 30 km/h
Temperatur:  19°C
Duggpunkt:  6°C
Fuktighet:  43%
Barometer:  1023 hPa
Summering:  Klart
Sikt:  mer enn 10 km
2018/05/20 16:50 ENGM 201650Z 20016KT 160V220 CAVOK 19/06 Q1023 NOSIG

Script utviklet av  Saratoga-weather.org Tilrettelagt for malen av  Weerstation Leuven

Du finner vår vær info også på:


UK Metoffice

European Weather Network

WeatherCloud

Weather Underground

Utstyr vi bruker:


Værstsjon
Davis VP2

Værprogram
Weather Display

Davis VP2

Weather Display